^^
Datos históricos de la estación: Murcia-Puente Tocinos
Diario Informe para Octubre 14, 2019 Unidades:  Métrico    Ingés   Ambas
Diario Semanal Mensual Anual
  Máxima: Mínima: Promedio:
Temperatura: 22.3 °C 19.7 °C 21.3 °C
Punto de rocio: 19.6 °C 18.3 °C 18.8 °C
Humedad: 94% 79% 86%
Velocidad viento: 9.5km/h 0km/h 2.2km/h
Racha viento: 62.9km/h - -
Viento- - SSE
Presión: 1014.5 hPa 1009.2 hPa -
Precipitación: 3.0 mm    
 
 
Tabla de datos para Octubre 14, 2019
Hora Temperatura Punto de rocio Presión Viento Velocidad viento Racha viento Humedad Intensidad lluvia(por hora) Nubes
00:04 21.2 °C 19.5 °C 1014.4 hPa NE 5 km/h 8.4 km/h 90% 0.0 mm
00:09 21.1 °C 19.5 °C 1014.4 hPa NE 4.9 km/h 8.4 km/h 90.5% 0.0 mm
00:14 21.1 °C 19.6 °C 1014.4 hPa NE 4.7 km/h 8 km/h 91% 0.0 mm
00:19 21.1 °C 19.6 °C 1014.5 hPa NE 4.1 km/h 5.6 km/h 91% 0.0 mm
00:24 21.1 °C 19.6 °C 1014.5 hPa NE 2.2 km/h 5.6 km/h 91% 0.0 mm
00:29 21.1 °C 19.6 °C 1014.5 hPa NE 2.4 km/h 4.8 km/h 91% 0.0 mm
00:34 21.1 °C 19.6 °C 1014.5 hPa NE 2.9 km/h 4.8 km/h 91% 0.0 mm
00:39 21 °C 19.5 °C 1014.4 hPa NE 2.3 km/h 3.9 km/h 91% 0.0 mm
00:44 21 °C 19.5 °C 1014.4 hPa Calm   7.6 km/h 91% 0.0 mm
00:49 20.9 °C 19.4 °C 1014.4 hPa Este 1 km/h 8 km/h 91% 0.0 mm
00:54 20.9 °C 19.4 °C 1014.4 hPa Este 4.7 km/h 8 km/h 91% 0.0 mm
00:59 20.9 °C 19.4 °C 1014.4 hPa Este 4.5 km/h 7.6 km/h 91% 0.0 mm
01:04 20.9 °C 19.4 °C 1014.4 hPa Este 3.9 km/h 8 km/h 91% 0.0 mm
01:09 20.9 °C 19.4 °C 1014.4 hPa Este 3.7 km/h 6.4 km/h 91% 0.0 mm
01:14 20.9 °C 19.4 °C 1014.4 hPa Este 3.2 km/h 6.4 km/h 91% 0.0 mm
01:19 21 °C 19.5 °C 1014.4 hPa Este 3 km/h 4.8 km/h 91% 0.0 mm
01:24 21 °C 19.5 °C 1014.4 hPa Este 2.2 km/h 3.9 km/h 90.9% 0.0 mm
01:29 21.1 °C 19.4 °C 1014.4 hPa Este 2.2 km/h 5.6 km/h 90% 0.0 mm
01:34 21.1 °C 19.4 °C 1014.5 hPa Este 2.2 km/h 5.8 km/h 90% 0.0 mm
01:39 21.2 °C 19.5 °C 1014.5 hPa ESE 2.6 km/h 8.4 km/h 90% 0.0 mm
01:44 21.2 °C 19.5 °C 1014.5 hPa SSE 3.9 km/h 8 km/h 89.8% 0.0 mm
01:49 21.2 °C 19.3 °C 1014.5 hPa ESE 3.9 km/h 8 km/h 89% 0.0 mm
01:54 21.2 °C 19.3 °C 1014.4 hPa ENE 3.9 km/h 4.7 km/h 89% 0.0 mm
01:59 21.1 °C 19.2 °C 1014.4 hPa ENE 3.5 km/h 4.8 km/h 89% 0.0 mm
02:04 21.1 °C 19.2 °C 1014.4 hPa ESE 2.2 km/h 7.4 km/h 89% 0.0 mm
02:09 21 °C 19.1 °C 1014.3 hPa SSO 2.6 km/h 8 km/h 89% 0.0 mm
02:14 20.9 °C 19 °C 1014.3 hPa OSO 3.9 km/h 8 km/h 89% 0.0 mm
02:19 20.9 °C 19 °C 1014.3 hPa SO 3.9 km/h 8 km/h 89% 0.0 mm
02:24 20.8 °C 19 °C 1014.3 hPa SO 3.9 km/h 8 km/h 89.1% 0.0 mm
02:29 20.8 °C 19.1 °C 1014.3 hPa OSO 3.7 km/h 7.4 km/h 90% 0.0 mm
02:34 20.8 °C 19.1 °C 1014.3 hPa OSO 3.2 km/h 8 km/h 90% 0.0 mm
02:39 20.7 °C 19 °C 1014.3 hPa Oeste 3.2 km/h 7.4 km/h 90% 0.0 mm
02:44 20.7 °C 19 °C 1014.3 hPa ONO 3.2 km/h 8 km/h 90% 0.0 mm
02:49 20.6 °C 18.9 °C 1014.3 hPa OSO 3.2 km/h 6.4 km/h 90% 0.0 mm
02:54 20.6 °C 18.9 °C 1014.1 hPa OSO 2.9 km/h 4.8 km/h 90% 0.0 mm
02:59 20.6 °C 18.9 °C 1014.1 hPa OSO 2.2 km/h 4.7 km/h 90% 0.0 mm
03:04 20.6 °C 18.9 °C 1014.1 hPa Calm   4.8 km/h 90% 0.0 mm
03:09 20.6 °C 18.9 °C 1013.9 hPa Sur 0.7 km/h 7.4 km/h 90% 0.0 mm
03:14 20.6 °C 18.9 °C 1013.9 hPa Sur 2.9 km/h 8 km/h 90% 0.0 mm
03:19 20.6 °C 18.9 °C 1013.9 hPa Sur 3.3 km/h 8 km/h 90% 0.0 mm
03:24 20.6 °C 18.9 °C 1013.8 hPa SE 4.7 km/h 8 km/h 90% 0.0 mm
03:29 20.6 °C 18.9 °C 1013.8 hPa ESE 4.5 km/h 8 km/h 90% 0.0 mm
03:34 20.5 °C 18.8 °C 1013.8 hPa ESE 3.9 km/h 8 km/h 90% 0.0 mm
03:39 20.4 °C 18.7 °C 1013.4 hPa Este 3.9 km/h 8 km/h 90% 0.0 mm
03:44 20.3 °C 18.6 °C 1013.4 hPa ESE 3.9 km/h 8 km/h 90% 0.0 mm
03:49 20.2 °C 18.5 °C 1013.4 hPa ESE 3.5 km/h 4.8 km/h 90% 0.0 mm
03:54 20.2 °C 18.5 °C 1013.1 hPa Este 2.2 km/h 5.8 km/h 90% 0.0 mm
03:59 20.1 °C 18.4 °C 1013.1 hPa NNE 2.5 km/h 7.4 km/h 90% 0.0 mm
04:04 19.9 °C 18.3 °C 1013.1 hPa NE 3.2 km/h 8 km/h 90.3% 0.0 mm
04:09 19.8 °C 18.3 °C 1012.8 hPa North 3.4 km/h 8 km/h 91% 0.0 mm
04:14 19.8 °C 18.3 °C 1012.8 hPa NNO 3.9 km/h 8 km/h 91% 0.0 mm
04:19 19.7 °C 18.3 °C 1012.8 hPa North 3.9 km/h 6.4 km/h 91.4% 0.0 mm
04:24 19.7 °C 18.4 °C 1012.6 hPa NNE 3.9 km/h 7.4 km/h 92% 0.0 mm
04:29 19.7 °C 18.4 °C 1012.6 hPa NE 3.9 km/h 8.4 km/h 92% 0.0 mm
04:34 19.7 °C 18.6 °C 1012.6 hPa NE 3.9 km/h 8 km/h 93% 0.0 mm
04:39 19.8 °C 18.6 °C 1012.5 hPa NE 3.9 km/h 8 km/h 93% 0.0 mm
04:44 19.8 °C 18.6 °C 1012.5 hPa ENE 3.9 km/h 6.4 km/h 93% 0.0 mm
04:49 19.8 °C 18.6 °C 1012.5 hPa NE 3.9 km/h 7.4 km/h 93% 0.0 mm
04:54 19.8 °C 18.6 °C 1012.3 hPa NNE 3.9 km/h 8 km/h 93% 0.0 mm
04:59 19.8 °C 18.6 °C 1012.3 hPa NE 4.1 km/h 8.7 km/h 93% 0.0 mm
05:04 19.7 °C 18.6 °C 1012.3 hPa ENE 4.6 km/h 9.7 km/h 93% 0.0 mm
05:09 19.8 °C 18.7 °C 1012.2 hPa ENE 4.4 km/h 8 km/h 93.6% 0.0 mm
05:14 19.8 °C 18.8 °C 1012.2 hPa ENE 3.2 km/h 4.8 km/h 94% 0.0 mm
05:19 19.9 °C 18.9 °C 1012.4 hPa ENE 2.5 km/h 2.9 km/h 94% 0.0 mm
05:24 19.9 °C 18.9 °C 1012.4 hPa Calm   6.4 km/h 94% 0.0 mm
05:29 20 °C 19 °C 1012.4 hPa Oeste 0.7 km/h 8 km/h 93.8% 0.0 mm
05:34 20 °C 18.8 °C 1012.4 hPa Oeste 3.2 km/h 8 km/h 93% 0.0 mm
05:39 19.9 °C 18.8 °C 1012.4 hPa Oeste 3.1 km/h 6.4 km/h 93% 0.0 mm
05:44 20 °C 18.8 °C 1012.4 hPa Oeste 2.9 km/h 3.9 km/h 93% 0.0 mm
05:49 20 °C 18.9 °C 1012.4 hPa Oeste 2.3 km/h 5 km/h 93% 0.0 mm
05:54 20.1 °C 18.9 °C 1012.4 hPa Calm   7.4 km/h 93% 0.0 mm
05:59 20 °C 18.8 °C 1012.4 hPa ENE 0.9 km/h 8 km/h 93% 0.0 mm
06:04 19.9 °C 18.7 °C 1012.4 hPa ENE 3.9 km/h 8 km/h 93% 0.0 mm
06:09 19.9 °C 18.8 °C 1012.2 hPa ENE 3 km/h 3.9 km/h 93% 0.0 mm
06:14 20 °C 18.8 °C 1012.2 hPa Calm   4.7 km/h 93% 0.0 mm
06:19 20.1 °C 18.9 °C 1012.2 hPa Calm   4.8 km/h 93% 0.0 mm
06:24 20.1 °C 18.9 °C 1012.2 hPa Calm   7.4 km/h 93% 0.0 mm
06:29 20.1 °C 18.9 °C 1012.2 hPa ENE 0.6 km/h 8 km/h 93% 0.0 mm
06:34 20.1 °C 18.9 °C 1012.2 hPa ENE 2.9 km/h 6.4 km/h 93% 0.0 mm
06:39 20 °C 18.8 °C 1011.9 hPa ENE 2.9 km/h 7.4 km/h 93% 0.0 mm
06:44 20 °C 18.8 °C 1011.9 hPa ESE 2.9 km/h 8 km/h 93% 0.0 mm
06:49 20 °C 18.8 °C 1012.2 hPa ESE 3 km/h 8 km/h 93% 0.0 mm
06:54 20 °C 18.9 °C 1012.2 hPa ESE 3.2 km/h 4.7 km/h 93.5% 0.0 mm
06:59 20 °C 18.9 °C 1012.2 hPa ESE 3.1 km/h 6.4 km/h 93.5% 0.0 mm
07:04 20 °C 19 °C 1012.2 hPa Este 2.9 km/h 7.4 km/h 94% 0.0 mm
07:09 20 °C 18.9 °C 1012.0 hPa NO 3 km/h 8 km/h 93.2% 0.0 mm
07:14 20 °C 19 °C 1012.0 hPa NO 3.2 km/h 6.4 km/h 93.8% 0.0 mm
07:19 20 °C 19 °C 1012.0 hPa NO 2.6 km/h 3.2 km/h 94% 0.0 mm
07:24 20.1 °C 19.1 °C 1011.8 hPa Calm   5.6 km/h 94% 0.0 mm
07:29 20.1 °C 19.1 °C 1011.8 hPa Calm   4.8 km/h 94% 0.0 mm
07:34 20.1 °C 19 °C 1011.8 hPa Calm   5.8 km/h 93.3% 0.0 mm
07:39 20 °C 18.8 °C 1011.6 hPa ESE 0.7 km/h 7.4 km/h 93% 0.0 mm
07:44 19.9 °C 18.7 °C 1011.6 hPa SE 3.2 km/h 8 km/h 93% 0.0 mm
07:49 19.8 °C 18.6 °C 1011.6 hPa SE 3.5 km/h 8 km/h 93% 0.0 mm
07:54 19.8 °C 18.7 °C 1011.6 hPa SSE 4.7 km/h 8 km/h 93.3% 0.0 mm
07:59 19.9 °C 18.9 °C 1011.6 hPa SSE 4.4 km/h 8 km/h 94% 0.0 mm
08:04 19.9 °C 18.9 °C 1011.6 hPa SSE 3.9 km/h 8 km/h 94% 0.0 mm
08:09 19.9 °C 18.9 °C 1011.5 hPa Sur 4 km/h 8 km/h 94% 0.0 mm
08:14 19.9 °C 18.9 °C 1011.5 hPa Sur 4.7 km/h 8 km/h 94% 0.0 mm
08:19 19.9 °C 18.9 °C 1011.5 hPa Sur 4.3 km/h 5.8 km/h 94% 0.0 mm
08:24 20 °C 19 °C 1011.3 hPa Sur 2.9 km/h 6.4 km/h 94% 0.0 mm
08:29 20.1 °C 18.9 °C 1011.3 hPa OSO 3 km/h 7.6 km/h 93.2% 0.0 mm
08:34 20.1 °C 19 °C 1011.7 hPa SSO 3.2 km/h 9.3 km/h 93% 0.0 mm
08:39 20.2 °C 19.1 °C 1011.7 hPa SSO 3.8 km/h 9.7 km/h 93% 0.0 mm
08:44 20.2 °C 19.1 °C 1011.7 hPa Sur 5.8 km/h 8.4 km/h 93% 0.0 mm
08:49 20.3 °C 19.1 °C 1011.7 hPa SSO 5.6 km/h 8.7 km/h 93% 0.0 mm
08:54 20.3 °C 19.1 °C 1011.7 hPa SSO 5 km/h 9.7 km/h 92.5% 0.0 mm
08:59 20.4 °C 19.1 °C 1011.7 hPa SSO 5 km/h 11.1 km/h 92% 0.0 mm
09:04 20.4 °C 19.1 °C 1011.7 hPa SSO 5 km/h 11.3 km/h 92% 0.0 mm
09:09 20.4 °C 19.1 °C 1011.7 hPa SSO 5.3 km/h 9.7 km/h 92% 0.0 mm
09:14 20.4 °C 19 °C 1011.7 hPa SSO 6.4 km/h 9.7 km/h 91.4% 0.0 mm
09:19 20.5 °C 19 °C 1011.9 hPa Sur 6.1 km/h 9.7 km/h 91.1% 0.0 mm
09:24 20.6 °C 19.1 °C 1011.9 hPa SO 5 km/h 11.1 km/h 91% 0.0 mm
09:29 20.7 °C 19.2 °C 1011.9 hPa SO 5.2 km/h 11.3 km/h 91% 0.0 mm
09:34 20.8 °C 19.1 °C 1012.1 hPa SO 5.8 km/h 9.7 km/h 90.1% 0.0 mm
09:39 20.8 °C 19 °C 1012.1 hPa OSO 5.8 km/h 11.1 km/h 89.6% 0.0 mm
09:44 20.8 °C 19 °C 1012.1 hPa SO 5.8 km/h 11.3 km/h 89% 0.0 mm
09:49 20.9 °C 19 °C 1012.5 hPa SO 6 km/h 11.9 km/h 89% 0.0 mm
09:54 20.9 °C 19 °C 1012.5 hPa SO 6.9 km/h 13.7 km/h 88.6% 0.0 mm
09:59 21.1 °C 19 °C 1012.5 hPa OSO 7.6 km/h 18.5 km/h 88% 0.0 mm
10:04 21.2 °C 19.1 °C 1012.9 hPa OSO 9.5 km/h 19.3 km/h 88% 0.0 mm
10:09 21.2 °C 19 °C 1012.9 hPa OSO 9.5 km/h 19.3 km/h 87.1% 0.0 mm
10:14 21.3 °C 19.1 °C 1012.9 hPa OSO 9.5 km/h 14.5 km/h 87% 0.0 mm
10:19 21.4 °C 19.1 °C 1013.2 hPa OSO 9.1 km/h 16.7 km/h 86.6% 0.0 mm
10:24 21.5 °C 18.9 °C 1013.2 hPa SO 7.6 km/h 16.7 km/h 85.5% 0.0 mm
10:29 21.6 °C 18.9 °C 1013.2 hPa SSO 7.7 km/h 11.9 km/h 85% 0.0 mm
10:34 21.6 °C 19 °C 1013.5 hPa Sur 8.4 km/h 13 km/h 85% 0.0 mm
10:39 21.7 °C 19.1 °C 1013.5 hPa Sur 8.2 km/h 12.9 km/h 85.3% 0.0 mm
10:44 21.7 °C 19.3 °C 1013.5 hPa SSE 7.6 km/h 11.3 km/h 86% 0.0 mm
10:49 21.8 °C 19.1 °C 1013.5 hPa SSO 7 km/h 9.7 km/h 84.9% 0.0 mm
10:54 21.9 °C 18.8 °C 1013.3 hPa OSO 5 km/h 10 km/h 82.8% 0.0 mm
10:59 22.1 °C 18.9 °C 1013.3 hPa OSO 5.4 km/h 13.7 km/h 82.1% 0.0 mm
11:04 22.1 °C 18.6 °C 1013.3 hPa Oeste 6.4 km/h 24.1 km/h 80.7% 0.0 mm
11:09 22.1 °C 18.5 °C 1013.1 hPa ONO 6.1 km/h 24.1 km/h 80% 0.0 mm
11:14 22.2 °C 18.6 °C 1013.1 hPa OSO 4.7 km/h 9.3 km/h 79.9% 0.0 mm
11:19 22.2 °C 18.5 °C 1013.3 hPa OSO 4.7 km/h 62.9 km/h 79.2% 0.0 mm
11:24 22.3 °C 18.5 °C 1013.3 hPa ONO 4.7 km/h 62.9 km/h 79% 0.0 mm
11:29 22.3 °C 18.5 °C 1013.3 hPa ONO 4.7 km/h 43.5 km/h 79% 0.0 mm
11:34 22.3 °C 18.5 °C 1013.3 hPa ONO 4.7 km/h 42.6 km/h 79% 0.0 mm
11:39 22.3 °C 18.5 °C 1012.7 hPa ONO 0.9 km/h 42.6 km/h 79% 0.0 mm
11:44 22.3 °C 18.5 °C 1012.7 hPa Calm   41.8 km/h 79% 0.0 mm
11:49 22.3 °C 18.5 °C 1012.7 hPa Calm     79% 0.0 mm
11:54 22.3 °C 18.5 °C 1012.7 hPa Calm     79% 0.0 mm
11:59 22.3 °C 18.5 °C 1012.7 hPa Calm     79% 3.0 mm
12:04 22.3 °C 18.5 °C 1012.7 hPa Calm     79% 3.0 mm
12:09 22.3 °C 18.5 °C 1012.3 hPa Calm     79% 3.0 mm
12:14 22.3 °C 18.5 °C 1012.3 hPa Calm     79% 3.0 mm
12:19 22.3 °C 18.5 °C 1012.3 hPa Calm     79% 3.0 mm
12:24 22.3 °C 18.5 °C 1012.0 hPa Calm     79% 3.0 mm
12:29 22.3 °C 18.5 °C 1012.0 hPa Calm     79% 3.0 mm
12:34 22.3 °C 18.5 °C 1012.1 hPa Calm     79% 3.0 mm
12:39 22.3 °C 18.5 °C 1012.1 hPa Calm     79% 3.0 mm
12:44 22.3 °C 18.5 °C 1012.1 hPa Calm     79% 3.0 mm
12:49 22.3 °C 18.5 °C 1012.1 hPa Calm     79% 3.0 mm
12:54 22.3 °C 18.5 °C 1011.9 hPa Calm     79% 3.0 mm
12:59 22.3 °C 18.5 °C 1011.9 hPa Calm     79% 3.0 mm
13:04 22.3 °C 18.5 °C 1011.9 hPa Calm     79% 0.0 mm
13:09 22.3 °C 18.5 °C 1011.9 hPa Calm     79% 0.0 mm
13:14 22.3 °C 18.5 °C 1011.9 hPa Calm     79% 0.0 mm
13:19 22.3 °C 18.5 °C 1011.9 hPa Calm     79% 0.0 mm
13:24 22.3 °C 18.5 °C 1011.7 hPa Calm     79% 0.0 mm
13:29 22.3 °C 18.5 °C 1011.7 hPa Calm     79% 0.0 mm
13:34 22.3 °C 18.5 °C 1011.7 hPa Calm     79% 0.0 mm
13:39 22.3 °C 18.5 °C 1011.1 hPa Calm     79% 0.0 mm
13:44 22.3 °C 18.5 °C 1011.1 hPa Calm     79% 0.0 mm
13:49 22.3 °C 18.5 °C 1011.5 hPa Calm     79% 0.0 mm
13:54 22.3 °C 18.5 °C 1011.5 hPa Calm     79% 0.0 mm
13:59 22.3 °C 18.5 °C 1011.5 hPa Calm     79% 0.0 mm
14:04 22.3 °C 18.5 °C 1011.6 hPa Calm     79% 0.0 mm
14:09 22.3 °C 18.5 °C 1011.6 hPa Calm     79% 0.0 mm
14:14 22.3 °C 18.5 °C 1011.6 hPa Calm     79% 0.0 mm
14:19 22.3 °C 18.5 °C 1011.6 hPa Calm     79% 0.0 mm
14:24 22.3 °C 18.5 °C 1011.3 hPa Calm     79% 0.0 mm
14:29 22.3 °C 18.5 °C 1011.3 hPa Calm     79% 0.0 mm
14:34 22.3 °C 18.5 °C 1011.3 hPa Calm     79% 0.0 mm
14:39 22.3 °C 18.5 °C 1011.0 hPa Calm     79% 0.0 mm
14:44 22.3 °C 18.5 °C 1011.0 hPa Calm     79% 0.0 mm
14:49 22.3 °C 18.5 °C 1011.0 hPa Calm     79% 0.0 mm
14:54 22.3 °C 18.5 °C 1010.8 hPa Calm     79% 0.0 mm
14:59 22.3 °C 18.5 °C 1010.8 hPa Calm     79% 0.0 mm
15:04 22.3 °C 18.5 °C 1010.8 hPa Calm     79% 0.0 mm
15:09 22.3 °C 18.5 °C 1010.4 hPa Calm     79% 0.0 mm
15:14 22.3 °C 18.5 °C 1010.4 hPa Calm     79% 0.0 mm
15:19 22.3 °C 18.5 °C 1010.4 hPa Calm     79% 0.0 mm
15:24 22.3 °C 18.5 °C 1010.4 hPa Calm     79% 0.0 mm
15:29 22.3 °C 18.5 °C 1010.4 hPa Calm     79% 0.0 mm
15:34 22.3 °C 18.5 °C 1010.4 hPa Calm     79% 0.0 mm
15:39 22.3 °C 18.5 °C 1010.3 hPa Calm     79% 0.0 mm
15:44 22.3 °C 18.5 °C 1010.3 hPa Calm     79% 0.0 mm
15:49 22.3 °C 18.5 °C 1010.3 hPa Calm     79% 0.0 mm
15:54 22.3 °C 18.5 °C 1010.0 hPa Calm     79% 0.0 mm
15:59 22.3 °C 18.5 °C 1010.0 hPa Calm     79% 0.0 mm
16:04 22.3 °C 18.5 °C 1010.0 hPa Calm     79% 0.0 mm
16:09 22.3 °C 18.5 °C 1010.0 hPa Calm     79% 0.0 mm
16:14 22.3 °C 18.5 °C 1010.0 hPa Calm     79% 0.0 mm
16:19 22.3 °C 18.5 °C 1010.0 hPa Calm     79% 0.0 mm
16:24 22.3 °C 18.5 °C 1009.8 hPa Calm     79% 0.0 mm
16:29 22.3 °C 18.5 °C 1009.8 hPa Calm     79% 0.0 mm
16:34 22.3 °C 18.5 °C 1009.8 hPa Calm     79% 0.0 mm
16:39 22.3 °C 18.5 °C 1009.7 hPa Calm     79% 0.0 mm
16:44 22.3 °C 18.5 °C 1009.7 hPa Calm     79% 0.0 mm
16:49 22.3 °C 18.5 °C 1009.7 hPa Calm     79% 0.0 mm
16:54 22.3 °C 18.5 °C 1009.7 hPa Calm     79% 0.0 mm
16:59 22.3 °C 18.5 °C 1009.7 hPa Calm     79% 0.0 mm
17:04 22.3 °C 18.5 °C 1009.7 hPa Calm     79% 0.0 mm
17:09 22.3 °C 18.5 °C 1009.5 hPa Calm     79% 0.0 mm
17:14 22.3 °C 18.5 °C 1009.5 hPa Calm     79% 0.0 mm
17:19 22.3 °C 18.5 °C 1009.5 hPa Calm     79% 0.0 mm
17:24 22.3 °C 18.5 °C 1009.5 hPa Calm     79% 0.0 mm
17:29 22.3 °C 18.5 °C 1009.5 hPa Calm     79% 0.0 mm
17:34 22.3 °C 18.5 °C 1009.5 hPa Calm     79% 0.0 mm
17:39 22.3 °C 18.5 °C 1009.3 hPa Calm     79% 0.0 mm
17:44 22.3 °C 18.5 °C 1009.3 hPa Calm     79% 0.0 mm
17:49 22.3 °C 18.5 °C 1009.3 hPa Calm     79% 0.0 mm
17:54 22.3 °C 18.5 °C 1009.3 hPa Calm     79% 0.0 mm
17:59 22.3 °C 18.5 °C 1009.3 hPa Calm     79% 0.0 mm
18:04 22.3 °C 18.5 °C 1009.3 hPa Calm     79% 0.0 mm
18:09 22.3 °C 18.5 °C 1009.3 hPa Calm     79% 0.0 mm
18:14 22.3 °C 18.5 °C 1009.3 hPa Calm     79% 0.0 mm
18:19 22.3 °C 18.5 °C 1009.3 hPa Calm     79% 0.0 mm
18:24 22.3 °C 18.5 °C 1009.2 hPa Calm     79% 0.0 mm
18:29 22.3 °C 18.5 °C 1009.2 hPa Calm     79% 0.0 mm
18:34 22.3 °C 18.5 °C 1009.3 hPa Calm     79% 0.0 mm
18:39 22.3 °C 18.5 °C 1009.3 hPa Calm     79% 0.0 mm
18:44 22.3 °C 18.5 °C 1009.3 hPa Calm     79% 0.0 mm
18:49 22.3 °C 18.5 °C 1009.4 hPa Calm     79% 0.0 mm
18:54 22.3 °C 18.5 °C 1009.4 hPa Calm     79% 0.0 mm
18:59 22.3 °C 18.5 °C 1009.4 hPa Calm     79% 0.0 mm
19:04 22.3 °C 18.5 °C 1009.5 hPa Calm     79% 0.0 mm
19:09 22.3 °C 18.5 °C 1009.5 hPa Calm     79% 0.0 mm
19:14 22.3 °C 18.5 °C 1009.5 hPa Calm     79% 0.0 mm
19:19 22.3 °C 18.5 °C 1009.5 hPa Calm     79% 0.0 mm
19:24 22.3 °C 18.5 °C 1009.4 hPa Calm     79% 0.0 mm
19:29 22.3 °C 18.5 °C 1009.4 hPa Calm     79% 0.0 mm
19:34 22.3 °C 18.5 °C 1009.6 hPa Calm     79% 0.0 mm
19:39 22.3 °C 18.5 °C 1009.6 hPa Calm     79% 0.0 mm
19:44 22.3 °C 18.5 °C 1009.6 hPa Calm     79% 0.0 mm
19:49 22.3 °C 18.5 °C 1009.9 hPa Calm     79% 0.0 mm
19:54 22.3 °C 18.5 °C 1009.9 hPa Calm     79% 0.0 mm
19:59 22.3 °C 18.5 °C 1009.9 hPa Calm     79% 0.0 mm
20:04 22.3 °C 18.5 °C 1010.3 hPa Calm     79% 0.0 mm
20:09 22.3 °C 18.5 °C 1010.3 hPa Calm     79% 0.0 mm
Murcia-Puente Tocinos, España
Compliments of Weather Underground - 2.75 mb

La estación de MeteoMurcia.com, publica sus datos en los siguientes proyectos:

Weather Underground PWS IMURCIAP2 Meteoclimatic www.awekas.at

W3Counter
Web Analytics